Time;durP1;ratioP1;P1;durP2;ratioP2;P2;SDS_P1;SDS_P2;PMS_P1;PMS_P2;Temp;Humidity;BMP_temperature;BMP_pressure;BME280_temperature;BME280_humidity;BME280_pressure;Samples;Min_cycle;Max_cycle;Signal;HPM_P1;HPM_P2
2022/06/07 00:01:04;;;;;;;16.13;8.65;;;;;;;;;;6325831;27;20097;-71
2022/06/07 00:04:06;;;;;;;17.88;7.47;;;;;;;;;;6326583;27;20055;-71
2022/06/07 00:07:10;;;;;;;11.82;7.05;;;;;;;;;;6327502;28;20048;-71
2022/06/07 00:10:12;;;;;;;18.20;7.60;;;;;;;;;;6327909;28;20197;-71
2022/06/07 00:13:15;;;;;;;12.60;7.15;;;;;;;;;;6331171;28;20216;-71
2022/06/07 00:16:17;;;;;;;12.82;6.57;;;;;;;;;;6325074;28;20078;-71
2022/06/07 00:19:19;;;;;;;16.10;7.40;;;;;;;;;;6325287;28;20216;-72
2022/06/07 00:22:22;;;;;;;12.68;7.53;;;;;;;;;;6327585;27;20051;-71
2022/06/07 00:25:24;;;;;;;14.95;7.00;;;;;;;;;;6326568;28;20052;-70
2022/06/07 00:28:26;;;;;;;17.23;7.18;;;;;;;;;;6325598;27;20047;-71
2022/06/07 00:31:28;;;;;;;11.85;7.47;;;;;;;;;;6326588;27;20327;-72
2022/06/07 00:34:30;;;;;;;14.82;7.50;;;;;;;;;;6324349;27;20039;-71
2022/06/07 00:37:33;;;;;;;13.00;6.88;;;;;;;;;;6323671;28;20627;-72
2022/06/07 00:40:35;;;;;;;15.68;7.78;;;;;;;;;;6321079;27;20040;-71
2022/06/07 00:43:37;;;;;;;15.40;7.35;;;;;;;;;;6324153;28;20062;-71
2022/06/07 00:46:38;;;;;;;15.43;7.68;;;;;;;;;;6327887;27;20327;-71
2022/06/07 00:49:44;;;;;;;18.25;8.15;;;;;;;;;;6326802;28;20056;-71
2022/06/07 00:52:48;;;;;;;15.05;7.63;;;;;;;;;;6321897;28;20077;-71
2022/06/07 00:55:49;;;;;;;;;;;;;;;;;;6324297;27;20286;-71
2022/06/07 00:58:51;;;;;;;13.60;6.82;;;;;;;;;;6328048;27;20224;-72
2022/06/07 01:01:53;;;;;;;12.10;7.60;;;;;;;;;;6324335;27;20062;-73
2022/06/07 01:04:54;;;;;;;14.02;7.63;;;;;;;;;;6326060;28;20093;-72
2022/06/07 01:11:17;;;;;;;13.45;7.72;;;;;;;;;;6325535;28;20052;-72
2022/06/07 01:14:18;;;;;;;17.65;7.88;;;;;;;;;;6322967;27;20063;-73
2022/06/07 01:17:20;;;;;;;14.75;7.60;;;;;;;;;;6326124;27;20048;-73
2022/06/07 01:20:22;;;;;;;11.18;7.22;;;;;;;;;;6323571;28;20350;-71
2022/06/07 01:23:25;;;;;;;14.70;7.18;;;;;;;;;;6321624;28;20048;-71
2022/06/07 01:26:27;;;;;;;16.65;8.52;;;;;;;;;;6328716;28;20097;-71
2022/06/07 01:29:28;;;;;;;14.43;6.50;;;;;;;;;;6324619;27;20157;-72
2022/06/07 01:32:30;;;;;;;14.38;7.50;;;;;;;;;;6325671;27;20047;-71
2022/06/07 01:35:32;;;;;;;15.02;7.28;;;;;;;;;;6328491;28;20115;-71
2022/06/07 01:38:35;;;;;;;17.45;8.07;;;;;;;;;;6323130;27;20098;-72
2022/06/07 01:41:55;;;;;;;16.60;8.10;;;;;;;;;;6326394;27;20056;-71
2022/06/07 01:44:57;;;;;;;13.27;7.90;;;;;;;;;;6327612;28;20035;-71
2022/06/07 01:47:59;;;;;;;17.73;7.82;;;;;;;;;;6323880;28;20333;-71
2022/06/07 01:51:01;;;;;;;19.02;8.13;;;;;;;;;;6322689;28;20176;-73
2022/06/07 01:54:04;;;;;;;14.40;7.73;;;;;;;;;;6321530;27;20081;-71
2022/06/07 01:57:07;;;;;;;19.98;8.07;;;;;;;;;;6324947;28;20324;-71
2022/06/07 02:00:10;;;;;;;18.08;8.63;;;;;;;;;;6322788;27;20052;-70
2022/06/07 02:03:12;;;;;;;14.13;7.93;;;;;;;;;;6325136;28;20055;-70
2022/06/07 02:06:14;;;;;;;15.75;8.80;;;;;;;;;;6308571;27;20044;-71
2022/06/07 02:09:17;;;;;;;16.58;7.55;;;;;;;;;;6302451;27;20051;-71
2022/06/07 02:12:19;;;;;;;15.75;7.53;;;;;;;;;;6312925;27;20066;-73
2022/06/07 02:15:21;;;;;;;13.05;6.85;;;;;;;;;;6308651;27;20051;-71
2022/06/07 02:18:23;;;;;;;16.33;7.30;;;;;;;;;;6320715;27;20048;-69
2022/06/07 02:21:25;;;;;;;12.10;7.53;;;;;;;;;;6316783;28;20886;-71
2022/06/07 02:24:28;;;;;;;13.13;7.93;;;;;;;;;;6306963;27;20294;-70
2022/06/07 02:27:30;;;;;;;17.95;8.57;;;;;;;;;;6321026;28;20376;-70
2022/06/07 02:30:31;;;;;;;17.38;7.75;;;;;;;;;;6320042;28;20340;-70
2022/06/07 02:33:34;;;;;;;11.55;6.78;;;;;;;;;;6322447;28;20058;-70
2022/06/07 02:36:36;;;;;;;;;;;;;;;;;;6320914;27;20083;-71
2022/06/07 02:39:39;;;;;;;13.80;6.00;;;;;;;;;;6324813;28;19916;-71
2022/06/07 02:42:41;;;;;;;;;;;;;;;;;;6320302;28;20044;-71
2022/06/07 02:45:42;;;;;;;5.88;3.35;;;;;;;;;;6321794;28;20239;-70
2022/06/07 02:48:44;;;;;;;6.30;2.67;;;;;;;;;;6320677;28;20262;-71
2022/06/07 02:51:46;;;;;;;5.35;2.33;;;;;;;;;;6320067;28;20350;-70
2022/06/07 02:54:49;;;;;;;5.78;2.90;;;;;;;;;;6321342;27;20108;-71
2022/06/07 02:57:50;;;;;;;6.00;2.40;;;;;;;;;;6317231;27;20064;-70
2022/06/07 03:00:52;;;;;;;3.72;2.53;;;;;;;;;;6322130;28;20070;-71
2022/06/07 03:03:54;;;;;;;3.17;2.08;;;;;;;;;;6320881;27;20048;-70
2022/06/07 03:06:55;;;;;;;3.80;1.90;;;;;;;;;;6319998;27;20059;-72
2022/06/07 03:09:58;;;;;;;3.92;2.00;;;;;;;;;;6323973;27;20052;-70
2022/06/07 03:13:00;;;;;;;3.35;1.80;;;;;;;;;;6321776;28;20061;-70
2022/06/07 03:16:02;;;;;;;4.95;1.80;;;;;;;;;;6323283;27;20117;-71
2022/06/07 03:19:03;;;;;;;3.67;1.75;;;;;;;;;;6323012;28;20114;-70
2022/06/07 03:22:07;;;;;;;3.83;1.90;;;;;;;;;;6321883;28;20047;-69
2022/06/07 03:25:11;;;;;;;4.30;2.00;;;;;;;;;;6322385;28;20048;-71
2022/06/07 03:28:12;;;;;;;2.90;1.80;;;;;;;;;;6320628;27;20044;-70
2022/06/07 03:31:17;;;;;;;7.50;2.17;;;;;;;;;;6325399;28;20114;-70
2022/06/07 03:34:19;;;;;;;4.20;2.00;;;;;;;;;;6324269;27;20403;-70
2022/06/07 03:37:21;;;;;;;4.88;2.03;;;;;;;;;;6331453;27;20113;-70
2022/06/07 03:43:39;;;;;;;3.10;2.30;;;;;;;;;;6328359;27;20067;-71
2022/06/07 03:46:43;;;;;;;2.70;2.10;;;;;;;;;;6332126;28;20043;-71
2022/06/07 03:49:46;;;;;;;3.47;2.00;;;;;;;;;;6325820;27;20059;-70
2022/06/07 03:52:47;;;;;;;3.67;2.25;;;;;;;;;;6326125;28;20070;-70
2022/06/07 03:55:53;;;;;;;5.50;2.17;;;;;;;;;;6326515;27;20045;-70
2022/06/07 03:58:55;;;;;;;6.28;2.50;;;;;;;;;;6328401;28;20055;-70
2022/06/07 04:01:57;;;;;;;15.20;3.95;;;;;;;;;;6330598;27;20097;-71
2022/06/07 04:04:58;;;;;;;5.03;2.67;;;;;;;;;;6325794;28;20052;-70
2022/06/07 04:08:12;;;;;;;5.07;2.97;;;;;;;;;;6325975;27;20103;-69
2022/06/07 04:11:17;;;;;;;5.20;2.78;;;;;;;;;;6321829;28;20048;-69
2022/06/07 04:14:19;;;;;;;4.68;3.15;;;;;;;;;;6322760;27;20060;-71
2022/06/07 04:17:20;;;;;;;3.30;2.83;;;;;;;;;;6326057;28;20051;-70
2022/06/07 04:20:22;;;;;;;6.05;2.42;;;;;;;;;;6328729;27;20247;-69
2022/06/07 04:23:24;;;;;;;9.00;3.20;;;;;;;;;;6321789;28;20056;-69
2022/06/07 04:26:28;;;;;;;8.35;3.17;;;;;;;;;;6329696;28;20278;-69
2022/06/07 04:29:29;;;;;;;4.57;2.95;;;;;;;;;;6329777;28;20208;-69
2022/06/07 04:32:31;;;;;;;4.53;3.58;;;;;;;;;;6324941;28;20364;-70
2022/06/07 04:35:33;;;;;;;5.13;2.60;;;;;;;;;;6328340;28;20270;-70
2022/06/07 04:38:35;;;;;;;4.78;2.80;;;;;;;;;;6323392;27;20044;-70
2022/06/07 04:41:38;;;;;;;8.48;2.95;;;;;;;;;;6324246;28;20040;-70
2022/06/07 04:44:40;;;;;;;7.47;1.95;;;;;;;;;;6326188;28;20044;-70
2022/06/07 04:47:43;;;;;;;5.95;2.40;;;;;;;;;;6327719;28;20044;-70
2022/06/07 04:50:44;;;;;;;3.40;2.17;;;;;;;;;;6328162;28;20075;-70
2022/06/07 04:53:46;;;;;;;7.57;2.28;;;;;;;;;;6323040;28;20044;-69
2022/06/07 04:56:49;;;;;;;5.22;2.65;;;;;;;;;;6326668;28;20052;-69
2022/06/07 04:59:51;;;;;;;3.45;2.20;;;;;;;;;;6325395;28;20456;-70
2022/06/07 05:02:53;;;;;;;4.15;2.00;;;;;;;;;;6321283;27;20331;-70
2022/06/07 05:05:54;;;;;;;3.97;2.20;;;;;;;;;;6325543;28;20048;-70
2022/06/07 05:08:58;;;;;;;3.03;2.00;;;;;;;;;;6327749;28;20055;-70
2022/06/07 05:12:01;;;;;;;5.13;2.38;;;;;;;;;;6323645;28;20150;-70
2022/06/07 05:15:04;;;;;;;3.30;2.00;;;;;;;;;;6322003;28;20062;-74
2022/06/07 05:18:07;;;;;;;3.33;2.05;;;;;;;;;;6325913;28;20048;-70
2022/06/07 05:21:10;;;;;;;3.67;2.10;;;;;;;;;;6325367;28;20232;-68
2022/06/07 05:24:13;;;;;;;4.95;2.15;;;;;;;;;;6325513;27;20055;-70
2022/06/07 05:27:18;;;;;;;3.28;2.53;;;;;;;;;;6325184;28;20254;-72
2022/06/07 05:30:20;;;;;;;6.03;2.38;;;;;;;;;;6326382;28;20048;-72
2022/06/07 05:33:21;;;;;;;3.92;1.98;;;;;;;;;;6325493;28;20044;-71
2022/06/07 05:36:24;;;;;;;3.25;2.35;;;;;;;;;;6326181;28;20071;-71
2022/06/07 05:39:27;;;;;;;5.45;1.67;;;;;;;;;;6330904;28;20060;-71
2022/06/07 05:42:31;;;;;;;4.10;1.90;;;;;;;;;;6328173;27;20055;-72
2022/06/07 05:45:32;;;;;;;6.50;2.05;;;;;;;;;;6324712;28;20804;-71
2022/06/07 05:48:35;;;;;;;2.83;1.77;;;;;;;;;;6321726;28;20040;-72
2022/06/07 05:51:37;;;;;;;8.27;2.63;;;;;;;;;;6322333;27;20269;-73
2022/06/07 05:54:39;;;;;;;3.72;1.90;;;;;;;;;;6323014;28;20266;-71
2022/06/07 05:57:49;;;;;;;3.63;1.63;;;;;;;;;;6326401;28;20044;-72
2022/06/07 06:00:50;;;;;;;3.90;2.17;;;;;;;;;;6300113;28;20041;-71
2022/06/07 06:03:52;;;;;;;4.05;1.83;;;;;;;;;;6300301;27;20049;-71
2022/06/07 06:06:55;;;;;;;7.65;2.17;;;;;;;;;;6296752;28;20052;-71
2022/06/07 06:13:26;;;;;;;3.75;2.20;;;;;;;;;;6259745;28;20175;-72
2022/06/07 06:16:28;;;;;;;4.75;2.03;;;;;;;;;;6257392;28;20053;-73
2022/06/07 06:19:29;;;;;;;3.08;2.30;;;;;;;;;;6270948;28;20370;-73
2022/06/07 06:22:31;;;;;;;5.13;2.20;;;;;;;;;;6269846;28;20090;-73
2022/06/07 06:25:33;;;;;;;3.13;2.10;;;;;;;;;;6274036;28;20111;-73
2022/06/07 06:28:43;;;;;;;5.55;2.50;;;;;;;;;;6273776;28;20049;-74
2022/06/07 06:31:46;;;;;;;8.25;2.50;;;;;;;;;;6272453;28;20099;-73
2022/06/07 06:34:48;;;;;;;5.70;2.55;;;;;;;;;;6273449;28;20053;-73
2022/06/07 06:37:49;;;;;;;4.13;2.50;;;;;;;;;;6271572;28;20095;-73
2022/06/07 06:40:51;;;;;;;4.88;2.53;;;;;;;;;;6271471;28;20052;-73
2022/06/07 06:43:55;;;;;;;5.25;2.50;;;;;;;;;;6271543;28;20052;-73
2022/06/07 06:46:57;;;;;;;5.68;2.67;;;;;;;;;;6271581;28;20288;-73
2022/06/07 06:49:59;;;;;;;7.47;2.78;;;;;;;;;;6313477;28;20113;-73
2022/06/07 06:53:01;;;;;;;4.85;2.65;;;;;;;;;;6320244;28;20335;-73
2022/06/07 06:56:03;;;;;;;4.18;2.50;;;;;;;;;;6324704;28;20066;-73
2022/06/07 06:59:06;;;;;;;4.15;2.90;;;;;;;;;;6323857;28;20076;-73
2022/06/07 07:02:08;;;;;;;4.22;2.70;;;;;;;;;;6319914;28;20066;-73
2022/06/07 07:05:11;;;;;;;3.47;2.50;;;;;;;;;;6323279;28;20055;-72
2022/06/07 07:08:12;;;;;;;;;;;;;;;;;;6328184;28;20113;-72
2022/06/07 07:11:17;;;;;;;3.38;2.50;;;;;;;;;;6325145;28;20092;-73
2022/06/07 07:14:21;;;;;;;5.60;2.83;;;;;;;;;;6323026;28;20306;-74
2022/06/07 07:17:22;;;;;;;4.63;2.33;;;;;;;;;;6326731;28;20056;-73
2022/06/07 07:20:24;;;;;;;3.15;2.38;;;;;;;;;;6329472;28;20048;-73
2022/06/07 07:23:25;;;;;;;4.18;2.35;;;;;;;;;;6324781;28;20083;-73
2022/06/07 07:26:28;;;;;;;8.13;2.20;;;;;;;;;;6324702;27;20060;-74
2022/06/07 07:29:31;;;;;;;2.97;1.73;;;;;;;;;;6327473;28;20223;-73
2022/06/07 07:32:33;;;;;;;3.22;2.40;;;;;;;;;;6326124;28;20056;-73
2022/06/07 07:35:35;;;;;;;4.07;2.25;;;;;;;;;;6323884;28;20107;-73
2022/06/07 07:38:39;;;;;;;5.25;2.22;;;;;;;;;;6327542;28;20044;-73
2022/06/07 07:41:40;;;;;;;;;;;;;;;;;;6327451;28;20153;-72
2022/06/07 07:44:43;;;;;;;3.45;2.58;;;;;;;;;;6326025;28;19982;-72
2022/06/07 07:47:45;;;;;;;4.00;2.00;;;;;;;;;;6326394;28;20048;-73
2022/06/07 07:50:47;;;;;;;5.03;2.65;;;;;;;;;;6322344;28;20105;-72
2022/06/07 07:53:49;;;;;;;6.40;2.50;;;;;;;;;;6324618;28;20290;-74
2022/06/07 07:56:51;;;;;;;4.32;3.15;;;;;;;;;;6324800;28;20438;-73
2022/06/07 07:59:55;;;;;;;4.30;2.93;;;;;;;;;;6322056;28;20056;-73
2022/06/07 08:02:56;;;;;;;;;;;;;;;;;;6323192;28;20512;-73
2022/06/07 08:05:58;;;;;;;4.03;2.20;;;;;;;;;;6321116;28;19923;-74
2022/06/07 08:09:02;;;;;;;5.63;2.63;;;;;;;;;;6324467;28;20075;-74
2022/06/07 08:12:06;;;;;;;3.63;2.70;;;;;;;;;;6321217;28;20088;-74
2022/06/07 08:15:10;;;;;;;3.03;2.22;;;;;;;;;;6320726;28;20359;-74
2022/06/07 08:18:12;;;;;;;4.38;2.20;;;;;;;;;;6324568;28;20047;-73
2022/06/07 08:21:16;;;;;;;3.75;2.10;;;;;;;;;;6330190;28;20057;-73
2022/06/07 08:24:18;;;;;;;4.82;2.33;;;;;;;;;;6325442;28;20040;-74
2022/06/07 08:27:20;;;;;;;2.90;1.88;;;;;;;;;;6325174;28;20051;-74
2022/06/07 08:30:23;;;;;;;4.03;2.75;;;;;;;;;;6325985;28;20227;-73
2022/06/07 08:40:19;;;;;;;4.30;2.40;;;;;;;;;;6295975;28;20055;-73
2022/06/07 08:43:23;;;;;;;4.90;2.10;;;;;;;;;;6298511;28;20076;-73
2022/06/07 08:46:29;;;;;;;6.18;2.40;;;;;;;;;;6299440;28;20061;-74
2022/06/07 08:49:31;;;;;;;4.65;2.22;;;;;;;;;;6300290;28;20056;-73
2022/06/07 08:52:34;;;;;;;8.02;2.53;;;;;;;;;;6297719;28;20120;-73
2022/06/07 08:55:37;;;;;;;;;;;;;;;;;;6296383;28;20045;-74
2022/06/07 08:58:41;;;;;;;23.23;4.38;;;;;;;;;;6297648;28;19962;-73
2022/06/07 09:01:48;;;;;;;27.08;5.45;;;;;;;;;;6294950;28;20136;-74
2022/06/07 09:04:51;;;;;;;20.73;5.22;;;;;;;;;;6298859;28;20126;-74
2022/06/07 09:07:52;;;;;;;10.30;5.18;;;;;;;;;;6277212;28;20155;-72
2022/06/07 09:14:26;;;;;;;42.67;8.05;;;;;;;;;;6316123;28;20115;-73
2022/06/07 09:17:32;;;;;;;25.65;7.57;;;;;;;;;;6326101;28;20071;-73
2022/06/07 09:20:36;;;;;;;15.65;7.75;;;;;;;;;;6328007;28;20371;-72
2022/06/07 09:23:44;;;;;;;14.15;8.65;;;;;;;;;;6328698;28;20047;-72
2022/06/07 09:26:45;;;;;;;16.02;9.88;;;;;;;;;;6327160;28;20095;-71
2022/06/07 09:29:53;;;;;;;20.67;10.60;;;;;;;;;;6325049;28;20048;-72
2022/06/07 09:32:56;;;;;;;19.88;11.55;;;;;;;;;;6325215;28;20110;-72
2022/06/07 09:36:01;;;;;;;20.85;12.20;;;;;;;;;;6326839;28;20040;-73
2022/06/07 09:39:07;;;;;;;19.83;12.60;;;;;;;;;;6326766;28;20093;-73
2022/06/07 09:42:16;;;;;;;27.90;13.10;;;;;;;;;;6321984;28;20354;-72
2022/06/07 09:45:23;;;;;;;27.92;13.95;;;;;;;;;;6325486;28;20052;-73
2022/06/07 09:48:30;;;;;;;21.33;12.77;;;;;;;;;;6322330;28;20052;-72
2022/06/07 09:51:40;;;;;;;22.10;13.35;;;;;;;;;;6299371;28;20045;-72
2022/06/07 09:54:45;;;;;;;18.45;11.00;;;;;;;;;;6324199;28;20282;-72
2022/06/07 09:57:53;;;;;;;17.60;11.35;;;;;;;;;;6325762;28;20041;-72
2022/06/07 10:00:58;;;;;;;16.20;10.68;;;;;;;;;;6323200;28;20044;-72
2022/06/07 10:04:07;;;;;;;15.15;10.73;;;;;;;;;;6324885;28;20050;-72
2022/06/07 10:07:11;;;;;;;17.58;10.27;;;;;;;;;;6326105;28;20339;-73
2022/06/07 10:10:16;;;;;;;18.98;12.05;;;;;;;;;;6320976;28;20044;-72
2022/06/07 10:13:26;;;;;;;18.45;12.05;;;;;;;;;;6326537;28;20051;-72
2022/06/07 10:16:32;;;;;;;15.73;11.38;;;;;;;;;;6327829;28;20048;-72
2022/06/07 10:19:42;;;;;;;9.90;5.95;;;;;;;;;;6321687;28;20055;-72
2022/06/07 10:22:58;;;;;;;4.78;4.25;;;;;;;;;;6321039;28;20090;-73
2022/06/07 10:26:09;;;;;;;5.07;3.00;;;;;;;;;;6325123;28;20051;-73
2022/06/07 10:29:24;;;;;;;4.88;2.33;;;;;;;;;;6321338;27;20085;-73
2022/06/07 10:32:31;;;;;;;6.68;2.55;;;;;;;;;;6323172;28;20074;-73
2022/06/07 10:35:41;;;;;;;3.42;2.03;;;;;;;;;;6323479;28;20086;-73
2022/06/07 10:38:51;;;;;;;3.03;2.10;;;;;;;;;;6324404;28;20060;-73
2022/06/07 10:41:56;;;;;;;1.98;1.60;;;;;;;;;;6320125;28;20272;-74
2022/06/07 10:45:06;;;;;;;5.10;2.05;;;;;;;;;;6324781;28;20048;-74
2022/06/07 10:48:12;;;;;;;2.72;1.35;;;;;;;;;;6325442;28;20209;-74
2022/06/07 10:54:46;;;;;;;3.35;1.25;;;;;;;;;;6326752;28;20331;-76
2022/06/07 10:57:57;;;;;;;3.97;1.30;;;;;;;;;;6327208;28;20112;-74
2022/06/07 11:01:04;;;;;;;2.20;1.17;;;;;;;;;;6325094;28;20051;-75
2022/06/07 11:04:11;;;;;;;3.25;1.35;;;;;;;;;;6326223;28;20055;-75
2022/06/07 11:10:37;;;;;;;2.70;1.38;;;;;;;;;;6322909;28;20055;-75
2022/06/07 11:13:43;;;;;;;1.15;1.05;;;;;;;;;;6327383;28;20111;-75
2022/06/07 11:16:52;;;;;;;1.83;1.10;;;;;;;;;;6322462;28;20044;-75
2022/06/07 11:19:54;;;;;;;1.75;1.30;;;;;;;;;;6319642;28;20051;-75
2022/06/07 11:23:02;;;;;;;;;;;;;;;;;;6325316;28;20060;-75
2022/06/07 11:26:06;;;;;;;2.38;1.13;;;;;;;;;;6325285;28;20046;-75
2022/06/07 11:29:09;;;;;;;1.38;0.82;;;;;;;;;;6327918;28;20109;-75
2022/06/07 11:32:37;;;;;;;1.85;1.02;;;;;;;;;;6321965;28;20216;-75
2022/06/07 11:35:52;;;;;;;6.90;1.38;;;;;;;;;;6321231;28;20048;-75
2022/06/07 11:39:18;;;;;;;3.30;1.00;;;;;;;;;;6324160;28;20086;-75
2022/06/07 11:42:30;;;;;;;1.77;1.00;;;;;;;;;;6324039;28;20055;-74
2022/06/07 11:45:32;;;;;;;2.85;1.10;;;;;;;;;;6326367;28;20227;-75
2022/06/07 11:48:37;;;;;;;1.45;1.10;;;;;;;;;;6326031;28;20239;-75
2022/06/07 11:51:39;;;;;;;4.38;1.23;;;;;;;;;;6326096;28;20039;-75
2022/06/07 11:54:53;;;;;;;2.80;1.30;;;;;;;;;;6325740;28;20052;-74
2022/06/07 11:58:03;;;;;;;3.25;1.58;;;;;;;;;;6328351;28;20040;-74
2022/06/07 12:01:23;;;;;;;2.38;1.23;;;;;;;;;;6329117;28;20047;-75
2022/06/07 12:04:34;;;;;;;1.35;1.10;;;;;;;;;;6326702;28;20080;-75
2022/06/07 12:07:45;;;;;;;2.63;1.10;;;;;;;;;;6329035;28;20044;-75
2022/06/07 12:11:00;;;;;;;2.20;1.35;;;;;;;;;;6326985;28;20044;-75
2022/06/07 12:14:24;;;;;;;2.75;1.70;;;;;;;;;;6330687;28;20066;-75
2022/06/07 12:17:30;;;;;;;1.60;1.45;;;;;;;;;;6327334;28;20344;-75
2022/06/07 12:20:35;;;;;;;2.30;1.60;;;;;;;;;;6329674;28;20051;-75
2022/06/07 12:23:38;;;;;;;2.58;1.60;;;;;;;;;;6330260;28;20063;-75
2022/06/07 12:26:42;;;;;;;2.92;1.65;;;;;;;;;;6329990;28;20056;-76
2022/06/07 12:29:44;;;;;;;3.08;1.35;;;;;;;;;;6329352;28;20091;-75
2022/06/07 12:32:48;;;;;;;2.67;1.60;;;;;;;;;;6328048;28;20091;-75
2022/06/07 12:35:55;;;;;;;1.65;1.40;;;;;;;;;;6327364;28;20044;-74
2022/06/07 12:39:01;;;;;;;2.05;1.20;;;;;;;;;;6325240;28;20055;-74
2022/06/07 12:42:13;;;;;;;2.22;1.23;;;;;;;;;;6329778;28;20071;-74
2022/06/07 12:45:23;;;;;;;3.25;1.25;;;;;;;;;;6327738;28;20044;-75
2022/06/07 12:48:26;;;;;;;1.98;1.48;;;;;;;;;;6333078;28;20272;-74
2022/06/07 12:51:34;;;;;;;2.65;1.30;;;;;;;;;;6327123;28;20188;-74
2022/06/07 12:54:36;;;;;;;1.70;1.15;;;;;;;;;;6324759;28;20138;-74
2022/06/07 12:57:48;;;;;;;2.00;1.25;;;;;;;;;;6324371;28;20342;-75
2022/06/07 13:00:51;;;;;;;1.55;1.20;;;;;;;;;;6322488;28;20056;-75
2022/06/07 13:03:54;;;;;;;2.17;1.10;;;;;;;;;;6327929;28;20048;-74
2022/06/07 13:07:03;;;;;;;2.65;1.02;;;;;;;;;;6331969;28;20093;-75
2022/06/07 13:10:07;;;;;;;2.13;1.10;;;;;;;;;;6299313;28;20082;-75
2022/06/07 13:13:23;;;;;;;1.30;1.20;;;;;;;;;;6323401;27;20044;-75
2022/06/07 13:16:39;;;;;;;1.55;1.10;;;;;;;;;;6325060;28;20084;-76
2022/06/07 13:19:43;;;;;;;1.70;1.20;;;;;;;;;;6322525;28;20044;-76
2022/06/07 13:22:45;;;;;;;1.40;1.20;;;;;;;;;;6331185;28;20043;-75
2022/06/07 13:25:48;;;;;;;2.67;1.15;;;;;;;;;;6329127;28;20044;-74
2022/06/07 13:29:09;;;;;;;1.40;1.30;;;;;;;;;;6327669;28;20044;-74
2022/06/07 13:32:22;;;;;;;1.48;1.35;;;;;;;;;;6326571;28;20051;-75
2022/06/07 13:35:29;;;;;;;2.05;1.30;;;;;;;;;;6325126;28;20048;-74
2022/06/07 13:38:36;;;;;;;1.48;1.10;;;;;;;;;;6327151;28;20247;-76
2022/06/07 13:41:47;;;;;;;2.13;1.40;;;;;;;;;;6327344;28;20407;-75
2022/06/07 13:45:00;;;;;;;2.35;1.30;;;;;;;;;;6326715;28;20045;-74
2022/06/07 13:48:16;;;;;;;1.63;1.27;;;;;;;;;;6327680;28;20392;-74
2022/06/07 13:54:49;;;;;;;1.70;1.35;;;;;;;;;;6324771;28;20126;-74
2022/06/07 13:57:51;;;;;;;2.30;1.40;;;;;;;;;;6324453;28;20139;-74
2022/06/07 14:00:59;;;;;;;2.95;1.50;;;;;;;;;;6328638;28;20130;-75
2022/06/07 14:04:03;;;;;;;1.95;1.60;;;;;;;;;;6326805;28;20115;-75
2022/06/07 14:07:08;;;;;;;1.83;1.40;;;;;;;;;;6326482;28;20050;-74
2022/06/07 14:10:15;;;;;;;2.60;1.08;;;;;;;;;;6324860;28;20367;-75
2022/06/07 14:13:18;;;;;;;1.58;1.40;;;;;;;;;;6327736;28;20091;-74
2022/06/07 14:16:30;;;;;;;2.80;1.50;;;;;;;;;;6323161;28;20067;-74
2022/06/07 14:19:33;;;;;;;;;;;;;;;;;;6322594;28;20052;-74
2022/06/07 14:22:35;;;;;;;1.38;1.20;;;;;;;;;;6321281;28;19955;-74
2022/06/07 14:25:37;;;;;;;3.40;1.70;;;;;;;;;;6328473;28;20215;-74
2022/06/07 14:28:39;;;;;;;2.50;1.70;;;;;;;;;;6322238;28;20528;-74
2022/06/07 14:31:43;;;;;;;2.33;1.40;;;;;;;;;;6323852;28;20054;-75
2022/06/07 14:34:45;;;;;;;1.35;1.13;;;;;;;;;;6324347;28;20052;-75
2022/06/07 14:37:48;;;;;;;4.40;1.70;;;;;;;;;;6323375;28;20045;-74
2022/06/07 14:40:50;;;;;;;1.58;1.48;;;;;;;;;;6319482;27;20296;-74
2022/06/07 14:43:52;;;;;;;3.28;1.77;;;;;;;;;;6324335;28;20051;-75
2022/06/07 14:46:56;;;;;;;7.40;1.33;;;;;;;;;;6324767;28;20063;-74
2022/06/07 14:49:58;;;;;;;1.52;1.25;;;;;;;;;;6320669;28;20251;-74
2022/06/07 14:53:00;;;;;;;3.03;2.67;;;;;;;;;;6320945;28;20087;-75
2022/06/07 14:56:02;;;;;;;3.15;1.98;;;;;;;;;;6322183;28;20051;-74
2022/06/07 14:59:04;;;;;;;4.03;1.70;;;;;;;;;;6316339;28;20109;-73
2022/06/07 15:02:13;;;;;;;2.60;1.40;;;;;;;;;;6322553;28;20384;-74
2022/06/07 15:05:17;;;;;;;2.20;1.40;;;;;;;;;;6319701;28;20178;-76
2022/06/07 15:08:21;;;;;;;3.20;2.03;;;;;;;;;;6320200;27;20064;-73
2022/06/07 15:11:28;;;;;;;1.80;1.50;;;;;;;;;;6323778;28;20258;-74
2022/06/07 15:14:30;;;;;;;3.20;1.58;;;;;;;;;;6320066;27;20056;-74
2022/06/07 15:17:36;;;;;;;1.85;1.40;;;;;;;;;;6323171;27;20044;-74
2022/06/07 15:20:40;;;;;;;1.55;1.42;;;;;;;;;;6318717;27;20284;-72
2022/06/07 15:23:42;;;;;;;3.42;1.42;;;;;;;;;;6327275;28;20059;-74
2022/06/07 15:26:44;;;;;;;2.35;1.42;;;;;;;;;;6320929;27;20047;-74
2022/06/07 15:29:52;;;;;;;3.03;1.60;;;;;;;;;;6328319;27;20085;-74
2022/06/07 15:32:57;;;;;;;2.17;1.70;;;;;;;;;;6325316;27;20257;-70
2022/06/07 15:35:59;;;;;;;1.50;1.33;;;;;;;;;;6324721;28;20323;-71
2022/06/07 15:39:01;;;;;;;2.90;1.40;;;;;;;;;;6322942;28;20048;-70
2022/06/07 15:45:24;;;;;;;2.40;1.20;;;;;;;;;;6327394;28;20047;-72
2022/06/07 15:48:28;;;;;;;2.92;1.40;;;;;;;;;;6322751;27;20072;-72
2022/06/07 15:51:30;;;;;;;3.28;1.65;;;;;;;;;;6323394;27;20231;-71
2022/06/07 15:54:32;;;;;;;3.53;1.48;;;;;;;;;;6326164;27;20133;-72
2022/06/07 16:00:49;;;;;;;4.30;1.75;;;;;;;;;;6292673;27;20052;-71
2022/06/07 16:03:53;;;;;;;1.45;1.27;;;;;;;;;;6328362;28;20107;-72
2022/06/07 16:06:55;;;;;;;1.42;1.33;;;;;;;;;;6324292;28;20236;-72
2022/06/07 16:09:57;;;;;;;2.13;1.23;;;;;;;;;;6323853;28;20088;-71
2022/06/07 16:12:59;;;;;;;2.22;1.80;;;;;;;;;;6320370;27;20061;-71
2022/06/07 16:16:02;;;;;;;2.88;2.05;;;;;;;;;;6322570;28;20071;-72
2022/06/07 16:19:05;;;;;;;2.08;1.30;;;;;;;;;;6322747;28;20238;-73
2022/06/07 16:22:07;;;;;;;2.13;1.67;;;;;;;;;;6326197;27;20054;-72
2022/06/07 16:25:10;;;;;;;4.15;1.52;;;;;;;;;;6323007;27;20052;-70
2022/06/07 16:34:53;;;;;;;5.18;2.10;;;;;;;;;;6324620;27;20048;-69
2022/06/07 16:37:55;;;;;;;3.33;1.80;;;;;;;;;;6324587;28;20067;-71
2022/06/07 16:40:56;;;;;;;3.47;1.63;;;;;;;;;;6322626;27;20048;-71
2022/06/07 16:44:04;;;;;;;1.92;1.73;;;;;;;;;;6326218;27;20107;-75
2022/06/07 16:47:08;;;;;;;3.55;2.10;;;;;;;;;;6324684;28;20052;-71
2022/06/07 16:50:13;;;;;;;3.15;1.70;;;;;;;;;;6321907;28;20053;-71
2022/06/07 16:53:14;;;;;;;1.73;1.50;;;;;;;;;;6298694;28;20083;-73
2022/06/07 16:56:16;;;;;;;2.20;1.55;;;;;;;;;;6299110;28;20052;-72
2022/06/07 16:59:19;;;;;;;2.75;1.50;;;;;;;;;;6305318;28;20059;-71
2022/06/07 17:02:21;;;;;;;1.88;1.35;;;;;;;;;;6299352;28;20318;-74
2022/06/07 17:05:25;;;;;;;2.22;1.40;;;;;;;;;;6299661;28;20352;-74
2022/06/07 17:08:27;;;;;;;3.85;1.67;;;;;;;;;;6299910;27;20118;-72
2022/06/07 17:11:29;;;;;;;2.20;1.20;;;;;;;;;;6299869;28;20184;-73
2022/06/07 17:14:30;;;;;;;2.90;1.80;;;;;;;;;;6301934;28;20095;-72
2022/06/07 17:17:33;;;;;;;2.97;1.60;;;;;;;;;;6299821;28;20217;-73
2022/06/07 17:20:38;;;;;;;2.43;1.40;;;;;;;;;;6295950;28;20096;-73
2022/06/07 17:23:39;;;;;;;2.42;1.90;;;;;;;;;;6297932;28;20064;-73
2022/06/07 17:26:41;;;;;;;3.05;1.80;;;;;;;;;;6298394;28;20045;-72
2022/06/07 17:29:43;;;;;;;2.22;1.50;;;;;;;;;;6297523;28;20111;-73
2022/06/07 17:32:45;;;;;;;2.72;1.70;;;;;;;;;;6299860;28;20290;-72
2022/06/07 17:35:48;;;;;;;3.55;2.00;;;;;;;;;;6299959;28;20108;-73
2022/06/07 17:38:51;;;;;;;6.53;1.52;;;;;;;;;;6300695;28;20068;-73
2022/06/07 17:41:53;;;;;;;6.10;2.20;;;;;;;;;;6299698;28;20060;-72
2022/06/07 17:44:57;;;;;;;2.40;1.75;;;;;;;;;;6299239;28;20123;-72
2022/06/07 17:47:59;;;;;;;2.95;1.67;;;;;;;;;;6298420;28;20056;-73
2022/06/07 17:51:03;;;;;;;4.15;2.28;;;;;;;;;;6295011;28;20127;-72
2022/06/07 17:54:05;;;;;;;3.25;2.10;;;;;;;;;;6301502;28;20044;-72
2022/06/07 17:57:07;;;;;;;3.53;2.22;;;;;;;;;;6301499;28;20053;-72
2022/06/07 18:00:10;;;;;;;3.08;1.80;;;;;;;;;;6301761;28;20049;-72
2022/06/07 18:03:15;;;;;;;3.53;2.17;;;;;;;;;;6324027;28;20067;-73
2022/06/07 18:06:18;;;;;;;3.75;2.17;;;;;;;;;;6325111;27;20097;-72
2022/06/07 18:09:20;;;;;;;6.88;6.28;;;;;;;;;;6321437;28;20107;-74
2022/06/07 18:12:23;;;;;;;5.93;2.90;;;;;;;;;;6322605;27;20056;-76
2022/06/07 18:15:26;;;;;;;4.03;2.03;;;;;;;;;;6327174;28;20052;-72
2022/06/07 18:18:29;;;;;;;4.35;2.60;;;;;;;;;;6325029;27;20387;-72
2022/06/07 18:21:35;;;;;;;3.72;2.20;;;;;;;;;;6323544;28;20099;-73
2022/06/07 18:24:37;;;;;;;4.53;2.60;;;;;;;;;;6319988;28;20044;-72
2022/06/07 18:27:39;;;;;;;3.70;2.67;;;;;;;;;;6324948;28;20298;-70
2022/06/07 18:30:41;;;;;;;3.65;2.65;;;;;;;;;;6316034;27;20234;-76
2022/06/07 18:33:44;;;;;;;4.47;2.40;;;;;;;;;;6323300;28;20062;-77
2022/06/07 18:36:47;;;;;;;4.25;2.97;;;;;;;;;;6321575;27;20051;-77
2022/06/07 18:39:49;;;;;;;3.72;2.35;;;;;;;;;;6319594;27;20058;-77
2022/06/07 18:42:51;;;;;;;3.20;2.35;;;;;;;;;;6324789;27;20050;-78
2022/06/07 18:45:53;;;;;;;4.68;2.38;;;;;;;;;;6324840;28;20119;-77
2022/06/07 18:48:55;;;;;;;2.40;1.90;;;;;;;;;;6322371;28;20123;-77
2022/06/07 18:51:59;;;;;;;3.38;1.92;;;;;;;;;;6324119;28;20056;-77
2022/06/07 18:55:00;;;;;;;3.65;1.55;;;;;;;;;;6322352;27;20058;-77
2022/06/07 18:58:02;;;;;;;2.85;1.70;;;;;;;;;;6323653;27;20280;-77
2022/06/07 19:01:05;;;;;;;2.95;2.53;;;;;;;;;;6320562;27;20107;-76
2022/06/07 19:04:07;;;;;;;2.15;1.70;;;;;;;;;;6321919;28;20070;-76
2022/06/07 19:07:10;;;;;;;3.65;2.80;;;;;;;;;;6323133;28;20344;-76